createdAt,value
2019-01-23T00:01:08.950Z,-4.06
2019-01-23T00:03:40.795Z,-3.95
2019-01-23T00:06:12.610Z,-4.02
2019-01-23T00:08:44.623Z,-4.00
2019-01-23T00:11:16.515Z,-4.06
2019-01-23T00:13:48.417Z,-3.91
2019-01-23T00:16:20.417Z,-3.84
2019-01-23T00:18:52.335Z,-3.83
2019-01-23T00:21:24.151Z,-3.84
2019-01-23T00:23:56.149Z,-3.81
2019-01-23T00:26:27.961Z,-3.75
2019-01-23T00:28:59.705Z,-3.66
2019-01-23T00:31:31.604Z,-3.80
2019-01-23T00:34:03.588Z,-3.79
2019-01-23T00:36:35.327Z,-3.80
2019-01-23T00:39:09.215Z,-3.85
2019-01-23T00:41:40.969Z,-3.90
2019-01-23T00:44:12.798Z,-3.90
2019-01-23T00:46:44.623Z,-3.79
2019-01-23T00:49:16.708Z,-3.94
2019-01-23T00:51:48.863Z,-4.07
2019-01-23T00:54:21.015Z,-3.90
2019-01-23T00:56:52.881Z,-4.03
2019-01-23T00:59:24.663Z,-4.03
2019-01-23T01:01:56.635Z,-3.98
2019-01-23T01:04:29.446Z,-3.87
2019-01-23T01:07:01.334Z,-3.88
2019-01-23T01:09:33.411Z,-4.00
2019-01-23T01:12:05.401Z,-3.98
2019-01-23T01:14:37.311Z,-3.94
2019-01-23T01:17:09.526Z,-3.86
2019-01-23T01:19:41.311Z,-3.87
2019-01-23T01:22:13.205Z,-3.86
2019-01-23T01:24:45.109Z,-3.77
2019-01-23T01:27:16.944Z,-3.81
2019-01-23T01:29:48.775Z,-3.87
2019-01-23T01:32:20.660Z,-3.97
2019-01-23T01:34:52.739Z,-3.95
2019-01-23T01:37:24.477Z,-3.95
2019-01-23T01:39:56.382Z,-3.91
2019-01-23T01:42:28.202Z,-3.94
2019-01-23T01:44:59.958Z,-3.92
2019-01-23T01:47:31.846Z,-3.95
2019-01-23T01:50:04.561Z,-3.87
2019-01-23T01:52:36.374Z,-3.99
2019-01-23T01:55:09.846Z,-3.93
2019-01-23T01:57:41.754Z,-3.94
2019-01-23T02:00:19.901Z,-3.78
2019-01-23T02:02:51.869Z,-3.90
2019-01-23T02:05:23.780Z,-3.91
2019-01-23T02:07:55.678Z,-3.89
2019-01-23T02:10:35.121Z,-3.91
2019-01-23T02:13:07.277Z,-3.90
2019-01-23T02:15:39.108Z,-3.90
2019-01-23T02:18:11.019Z,-3.80
2019-01-23T02:20:43.192Z,-3.92
2019-01-23T02:23:15.035Z,-4.05
2019-01-23T02:25:46.949Z,-3.94
2019-01-23T02:28:19.030Z,-3.97
2019-01-23T02:30:50.789Z,-4.05
2019-01-23T02:33:22.698Z,-4.00
2019-01-23T02:35:54.593Z,-4.14
2019-01-23T02:38:26.350Z,-4.26
2019-01-23T02:40:58.184Z,-4.34
2019-01-23T02:43:30.007Z,-4.21
2019-01-23T02:46:01.843Z,-4.16
2019-01-23T02:48:33.601Z,-4.12
2019-01-23T02:51:05.508Z,-4.15
2019-01-23T02:53:37.656Z,-4.13
2019-01-23T02:56:10.137Z,-4.12
2019-01-23T02:58:41.927Z,-4.19
2019-01-23T03:01:13.773Z,-4.25
2019-01-23T03:03:45.612Z,-4.28
2019-01-23T03:06:17.841Z,-4.38
2019-01-23T03:08:49.679Z,-4.32
2019-01-23T03:11:21.763Z,-4.38
2019-01-23T03:13:53.588Z,-4.28
2019-01-23T03:16:25.497Z,-4.32
2019-01-23T03:18:57.400Z,-4.44
2019-01-23T03:21:29.246Z,-4.29
2019-01-23T03:24:01.076Z,-4.26
2019-01-23T03:26:32.910Z,-4.18
2019-01-23T03:29:04.831Z,-4.17
2019-01-23T03:31:36.843Z,-4.06
2019-01-23T03:34:08.934Z,-4.04
2019-01-23T03:36:40.842Z,-4.08
2019-01-23T03:39:12.921Z,-4.17
2019-01-23T03:41:45.123Z,-4.13
2019-01-23T03:44:17.044Z,-4.19
2019-01-23T03:46:49.256Z,-4.33
2019-01-23T03:49:21.032Z,-4.37
2019-01-23T03:51:52.962Z,-4.28
2019-01-23T03:54:24.891Z,-4.38
2019-01-23T03:56:56.819Z,-4.26
2019-01-23T03:59:32.339Z,-4.22
2019-01-23T04:02:02.364Z,-4.35
2019-01-23T04:04:34.287Z,-4.45
2019-01-23T04:07:06.284Z,-4.31
2019-01-23T04:09:38.198Z,-4.31
2019-01-23T04:12:10.168Z,-4.46
2019-01-23T04:14:42.105Z,-4.40
2019-01-23T04:17:14.039Z,-4.49
2019-01-23T04:19:46.780Z,-4.67
2019-01-23T04:22:18.886Z,-4.42
2019-01-23T04:24:51.068Z,-4.40
2019-01-23T04:27:23.006Z,-4.46
2019-01-23T04:29:54.918Z,-4.21
2019-01-23T04:32:27.086Z,-4.29
2019-01-23T04:34:59.058Z,-4.23
2019-01-23T04:37:31.099Z,-4.27
2019-01-23T04:40:03.021Z,-4.48
2019-01-23T04:42:35.060Z,-4.46
2019-01-23T04:45:09.391Z,-4.31
2019-01-23T04:47:42.786Z,-4.50
2019-01-23T04:50:16.480Z,-4.27
2019-01-23T04:53:13.217Z,-4.51
2019-01-23T04:55:45.205Z,-4.31
2019-01-23T04:58:17.548Z,-4.57
2019-01-23T05:00:49.602Z,-4.39
2019-01-23T05:03:21.539Z,-4.54
2019-01-23T05:05:53.466Z,-4.37
2019-01-23T05:08:25.532Z,-4.48
2019-01-23T05:10:57.547Z,-4.52
2019-01-23T05:13:29.623Z,-4.49
2019-01-23T05:16:01.649Z,-4.46
2019-01-23T05:18:33.874Z,-4.52
2019-01-23T05:21:05.803Z,-4.52
2019-01-23T05:23:37.984Z,-4.44
2019-01-23T05:26:10.179Z,-4.48
2019-01-23T05:28:42.197Z,-4.50
2019-01-23T05:31:14.663Z,-4.57
2019-01-23T05:33:46.704Z,-4.51
2019-01-23T05:36:18.850Z,-4.54
2019-01-23T05:38:50.790Z,-4.53
2019-01-23T05:41:22.802Z,-4.46
2019-01-23T05:43:54.841Z,-4.33
2019-01-23T05:46:27.394Z,-4.37
2019-01-23T05:48:59.559Z,-4.45
2019-01-23T05:51:31.706Z,-4.50
2019-01-23T05:54:03.635Z,-4.27
2019-01-23T05:56:35.700Z,-4.28
2019-01-23T05:59:07.848Z,-4.21
2019-01-23T06:01:39.865Z,-4.14
2019-01-23T06:04:11.882Z,-4.14
2019-01-23T06:06:44.917Z,-4.09
2019-01-23T06:09:16.996Z,-4.19
2019-01-23T06:11:48.935Z,-4.19
2019-01-23T06:14:20.893Z,-4.14
2019-01-23T06:16:53.038Z,-4.12
2019-01-23T06:19:25.117Z,-4.10
2019-01-23T06:21:57.033Z,-4.32
2019-01-23T06:24:28.993Z,-4.21
2019-01-23T06:27:01.036Z,-4.17
2019-01-23T06:29:32.888Z,-4.19
2019-01-23T06:32:04.984Z,-4.20
2019-01-23T06:34:36.962Z,-4.28
2019-01-23T06:37:10.590Z,-4.36
2019-01-23T06:39:42.873Z,-4.28
2019-01-23T06:42:15.021Z,-4.32
2019-01-23T06:44:47.625Z,-4.39
2019-01-23T06:47:19.542Z,-4.28
2019-01-23T06:49:51.550Z,-4.37
2019-01-23T06:52:23.396Z,-4.31
2019-01-23T06:54:55.704Z,-4.21
2019-01-23T06:57:27.622Z,-4.21
2019-01-23T06:59:59.727Z,-4.27
2019-01-23T07:02:31.719Z,-4.26
2019-01-23T07:05:04.062Z,-4.25
2019-01-23T07:07:36.107Z,-4.27
2019-01-23T07:10:12.593Z,-4.41
2019-01-23T07:12:44.696Z,-4.41
2019-01-23T07:15:16.667Z,-4.29
2019-01-23T07:17:48.662Z,-4.22
2019-01-23T07:20:23.682Z,-4.31
2019-01-23T07:22:55.704Z,-4.25
2019-01-23T07:25:28.833Z,-4.32
2019-01-23T07:28:00.848Z,-4.28
2019-01-23T07:30:43.552Z,-4.25
2019-01-23T07:33:15.467Z,-4.33
2019-01-23T07:35:47.712Z,-4.39
2019-01-23T07:38:19.670Z,-4.40
2019-01-23T07:40:51.610Z,-4.35
2019-01-23T07:43:24.586Z,-4.39
2019-01-23T07:45:56.586Z,-4.38
2019-01-23T07:48:28.608Z,-4.28
2019-01-23T07:51:00.536Z,-4.25
2019-01-23T07:53:32.799Z,-4.32
2019-01-23T07:56:04.739Z,-4.31
2019-01-23T07:58:36.901Z,-4.32
2019-01-23T08:01:09.986Z,-4.48
2019-01-23T08:03:42.093Z,-4.41
2019-01-23T08:06:14.068Z,-4.40
2019-01-23T08:08:45.920Z,-4.37
2019-01-23T08:11:17.933Z,-4.43
2019-01-23T08:13:50.006Z,-4.41
2019-01-23T08:16:21.944Z,-4.40
2019-01-23T08:18:54.119Z,-4.37
2019-01-23T08:21:25.963Z,-4.46
2019-01-23T08:23:57.811Z,-4.41
2019-01-23T08:26:29.706Z,-4.45
2019-01-23T08:29:01.439Z,-4.51
2019-01-23T08:31:33.330Z,-4.42
2019-01-23T08:34:05.212Z,-4.42
2019-01-23T08:36:36.957Z,-4.45
2019-01-23T08:39:09.914Z,-4.32
2019-01-23T08:41:41.675Z,-4.37
2019-01-23T08:44:13.478Z,-4.21
2019-01-23T08:46:45.424Z,-4.32
2019-01-23T08:49:17.244Z,-4.22
2019-01-23T08:51:48.986Z,-4.16
2019-01-23T08:54:20.724Z,-4.19
2019-01-23T08:56:52.544Z,-4.23
2019-01-23T08:59:24.286Z,-4.27
2019-01-23T09:01:56.044Z,-4.27
2019-01-23T09:04:27.933Z,-4.28
2019-01-23T09:06:59.678Z,-4.17
2019-01-23T09:09:31.568Z,-4.35
2019-01-23T09:12:03.466Z,-4.15
2019-01-23T09:14:35.347Z,-4.09
2019-01-23T09:17:07.374Z,-4.21
2019-01-23T09:19:39.116Z,-4.12
2019-01-23T09:22:10.877Z,-4.21
2019-01-23T09:24:42.719Z,-4.26
2019-01-23T09:27:14.627Z,-4.29
2019-01-23T09:29:46.399Z,-4.37
2019-01-23T09:32:58.114Z,-4.27
2019-01-23T09:36:23.786Z,-4.29
2019-01-23T09:40:12.304Z,-4.23
2019-01-23T09:43:11.420Z,-4.28
2019-01-23T09:46:45.165Z,-4.28
2019-01-23T09:50:00.311Z,-4.24
2019-01-23T09:53:23.515Z,-4.28
2019-01-23T09:55:55.536Z,-4.19
2019-01-23T09:58:27.358Z,-4.05
2019-01-23T10:00:59.794Z,-4.02
2019-01-23T10:03:31.831Z,-4.04
2019-01-23T10:06:03.905Z,-4.02
2019-01-23T10:08:35.788Z,-4.02
2019-01-23T10:11:07.759Z,-4.02
2019-01-23T10:13:39.602Z,-4.07
2019-01-23T10:16:18.275Z,-4.06
2019-01-23T10:18:55.988Z,-4.15
2019-01-23T10:21:23.927Z,-4.15
2019-01-23T10:23:55.711Z,-4.18
2019-01-23T10:26:27.710Z,-4.08
2019-01-23T10:28:59.555Z,-4.03
2019-01-23T10:31:31.395Z,-4.07
2019-01-23T10:34:03.239Z,-3.99
2019-01-23T10:36:35.066Z,-4.03
2019-01-23T10:39:09.684Z,-4.09
2019-01-23T10:41:41.687Z,-4.17
2019-01-23T10:44:13.604Z,-4.35
2019-01-23T10:46:45.507Z,-4.15
2019-01-23T10:49:17.425Z,-4.28
2019-01-23T10:51:49.377Z,-4.20
2019-01-23T10:54:21.489Z,-4.14
2019-01-23T10:56:53.574Z,-4.21
2019-01-23T10:59:25.488Z,-4.23
2019-01-23T11:01:57.418Z,-4.21
2019-01-23T11:04:29.363Z,-4.09
2019-01-23T11:07:01.273Z,-4.17
2019-01-23T11:09:33.195Z,-4.13
2019-01-23T11:12:05.283Z,-4.00
2019-01-23T11:14:37.126Z,-3.94
2019-01-23T11:17:09.760Z,-4.04
2019-01-23T11:19:41.707Z,-4.02
2019-01-23T11:22:13.628Z,-4.04
2019-01-23T11:24:45.542Z,-4.00
2019-01-23T11:27:17.375Z,-4.03
2019-01-23T11:29:49.307Z,-4.01
2019-01-23T11:32:21.218Z,-4.09
2019-01-23T11:34:53.132Z,-4.02
2019-01-23T11:37:25.045Z,-4.05
2019-01-23T11:39:57.043Z,-3.99
2019-01-23T11:42:29.003Z,-3.93
2019-01-23T11:45:00.849Z,-3.94
2019-01-23T11:47:33.260Z,-4.03
2019-01-23T11:50:06.807Z,-3.96
2019-01-23T11:52:38.783Z,-3.95
2019-01-23T11:55:11.200Z,-4.02
2019-01-23T11:57:43.116Z,-4.00
2019-01-23T12:00:19.266Z,-4.16
2019-01-23T12:02:51.425Z,-4.22
2019-01-23T12:05:24.195Z,-4.08
2019-01-23T12:07:56.450Z,-4.13
2019-01-23T12:10:28.381Z,-4.06
2019-01-23T12:13:00.298Z,-3.91
2019-01-23T12:15:32.144Z,-4.03
2019-01-23T12:18:04.154Z,-3.98
2019-01-23T12:20:36.077Z,-3.95
2019-01-23T12:23:08.064Z,-3.85
2019-01-23T12:25:40.055Z,-3.89
2019-01-23T12:28:11.965Z,-3.91
2019-01-23T12:30:43.890Z,-3.95
2019-01-23T12:33:23.078Z,-3.93
2019-01-23T12:35:54.983Z,-3.91
2019-01-23T12:38:26.899Z,-3.85
2019-01-23T12:40:58.758Z,-3.95
2019-01-23T12:43:30.661Z,-3.92
2019-01-23T12:46:02.587Z,-3.93
2019-01-23T12:48:34.567Z,-3.89
2019-01-23T12:51:06.759Z,-3.84
2019-01-23T12:53:38.678Z,-3.89
2019-01-23T12:56:10.669Z,-3.90
2019-01-23T12:58:42.578Z,-3.90
2019-01-23T13:01:15.672Z,-3.88
2019-01-23T13:03:47.715Z,-3.84
2019-01-23T13:06:19.746Z,-3.86
2019-01-23T13:08:51.726Z,-3.95
2019-01-23T13:11:23.643Z,-3.80
2019-01-23T13:13:55.551Z,-3.93
2019-01-23T13:16:27.543Z,-3.76
2019-01-23T13:18:59.446Z,-3.86
2019-01-23T13:21:32.334Z,-3.86
2019-01-23T13:24:04.315Z,-3.79
2019-01-23T13:26:36.229Z,-3.75
2019-01-23T13:29:08.134Z,-3.66
2019-01-23T13:31:40.052Z,-3.82
2019-01-23T13:34:11.962Z,-3.72
2019-01-23T13:36:43.815Z,-3.74
2019-01-23T13:39:19.189Z,-3.81
2019-01-23T13:41:51.105Z,-3.74
2019-01-23T13:44:23.072Z,-3.75
2019-01-23T13:46:55.000Z,-3.78
2019-01-23T13:49:26.838Z,-3.71
2019-01-23T13:51:58.684Z,-3.63
2019-01-23T13:54:30.608Z,-3.66
2019-01-23T13:57:02.779Z,-3.62
2019-01-23T13:59:34.758Z,-3.63
2019-01-23T14:02:06.685Z,-3.72
2019-01-23T14:04:38.611Z,-3.73
2019-01-23T14:07:10.456Z,-3.71
2019-01-23T14:09:42.219Z,-3.69
2019-01-23T14:12:14.151Z,-3.79
2019-01-23T14:14:46.232Z,-3.68
2019-01-23T14:17:18.002Z,-3.76
2019-01-23T14:19:49.920Z,-3.80
2019-01-23T14:22:21.765Z,-3.82
2019-01-23T14:24:53.605Z,-3.67
2019-01-23T14:27:25.539Z,-3.67
2019-01-23T14:29:57.529Z,-3.72
2019-01-23T14:32:29.557Z,-3.68
2019-01-23T14:35:01.575Z,-3.65
2019-01-23T14:37:33.500Z,-3.78
2019-01-23T14:40:06.076Z,-3.73
2019-01-23T14:42:38.061Z,-3.71
2019-01-23T14:45:10.685Z,-3.78
2019-01-23T14:47:42.911Z,-3.74
2019-01-23T14:50:15.209Z,-3.74
2019-01-23T14:52:47.539Z,-3.71
2019-01-23T14:55:19.549Z,-3.63
2019-01-23T14:57:51.567Z,-3.60
2019-01-23T15:00:26.286Z,-3.64
2019-01-23T15:02:58.209Z,-3.70
2019-01-23T15:05:49.044Z,-3.87
2019-01-23T15:08:20.895Z,-3.75
2019-01-23T15:10:52.732Z,-3.88
2019-01-23T15:13:24.658Z,-3.65
2019-01-23T15:15:56.507Z,-3.63
2019-01-23T15:18:28.421Z,-3.64
2019-01-23T15:21:00.401Z,-3.84
2019-01-23T15:23:32.326Z,-3.92
2019-01-23T15:26:04.158Z,-3.85
2019-01-23T15:28:36.087Z,-3.91
2019-01-23T15:31:08.262Z,-3.87
2019-01-23T15:33:40.101Z,-3.80
2019-01-23T15:36:12.043Z,-3.69
2019-01-23T15:38:44.030Z,-3.65
2019-01-23T15:41:15.932Z,-3.80
2019-01-23T15:43:47.772Z,-3.83
2019-01-23T15:46:19.676Z,-3.81
2019-01-23T15:48:51.517Z,-3.70
2019-01-23T15:51:23.269Z,-3.93
2019-01-23T15:53:55.112Z,-3.80
2019-01-23T15:56:27.024Z,-3.88
2019-01-23T15:58:58.870Z,-3.78
2019-01-23T16:01:30.852Z,-3.95
2019-01-23T16:04:02.783Z,-4.03
2019-01-23T16:06:35.656Z,-3.93
2019-01-23T16:09:08.518Z,-4.05
2019-01-23T16:11:40.351Z,-4.00
2019-01-23T16:14:12.202Z,-4.08
2019-01-23T16:16:44.188Z,-4.10
2019-01-23T16:19:15.959Z,-4.06
2019-01-23T16:21:47.871Z,-4.00
2019-01-23T16:24:20.035Z,-4.02
2019-01-23T16:26:51.867Z,-4.11
2019-01-23T16:29:23.785Z,-4.14
2019-01-23T16:31:56.666Z,-4.19
2019-01-23T16:34:28.507Z,-4.04
2019-01-23T16:37:00.519Z,-4.22
2019-01-23T16:39:32.676Z,-4.13
2019-01-23T16:42:04.643Z,-4.04
2019-01-23T16:44:36.635Z,-4.02
2019-01-23T16:47:08.626Z,-4.10
2019-01-23T16:49:40.475Z,-4.16
2019-01-23T16:52:12.393Z,-4.20
2019-01-23T16:54:44.311Z,-4.22
2019-01-23T16:57:16.223Z,-4.21
2019-01-23T16:59:48.141Z,-4.27
2019-01-23T17:02:19.977Z,-4.23
2019-01-23T17:04:52.974Z,-4.24
2019-01-23T17:07:24.912Z,-4.21
2019-01-23T17:09:56.802Z,-4.20
2019-01-23T17:12:29.637Z,-4.25
2019-01-23T17:15:01.818Z,-4.20
2019-01-23T17:17:34.699Z,-4.23
2019-01-23T17:20:08.971Z,-4.31
2019-01-23T17:22:40.811Z,-4.24
2019-01-23T17:25:12.998Z,-4.22
2019-01-23T17:27:44.911Z,-4.32
2019-01-23T17:30:17.809Z,-4.34
2019-01-23T17:32:49.801Z,-4.41
2019-01-23T17:35:22.439Z,-4.41
2019-01-23T17:37:54.414Z,-4.45
2019-01-23T17:40:26.370Z,-4.32
2019-01-23T17:42:58.516Z,-4.23
2019-01-23T17:45:33.712Z,-4.41
2019-01-23T17:48:08.505Z,-4.44
2019-01-23T17:50:41.475Z,-4.48
2019-01-23T17:53:13.520Z,-4.53
2019-01-23T17:55:45.536Z,-4.37
2019-01-23T17:58:17.797Z,-4.49
2019-01-23T18:00:57.328Z,-4.43
2019-01-23T18:03:29.235Z,-4.50
2019-01-23T18:06:01.235Z,-4.59
2019-01-23T18:08:33.066Z,-4.60
2019-01-23T18:11:05.336Z,-4.61
2019-01-23T18:13:37.195Z,-4.54
2019-01-23T18:16:12.491Z,-4.46
2019-01-23T18:18:44.573Z,-4.50
2019-01-23T18:21:16.493Z,-4.53
2019-01-23T18:23:48.599Z,-4.46
2019-01-23T18:26:20.520Z,-4.41
2019-01-23T18:28:52.498Z,-4.53
2019-01-23T18:31:53.216Z,-4.47
2019-01-23T18:35:16.795Z,-4.54
2019-01-23T18:38:19.276Z,-4.60
2019-01-23T18:41:38.446Z,-4.49
2019-01-23T18:44:53.247Z,-4.53
2019-01-23T18:48:11.371Z,-4.49
2019-01-23T18:51:48.558Z,-4.40
2019-01-23T18:54:20.538Z,-4.61
2019-01-23T18:56:52.464Z,-4.65
2019-01-23T18:59:24.481Z,-4.57
2019-01-23T19:01:56.650Z,-4.58
2019-01-23T19:04:28.507Z,-4.60
2019-01-23T19:07:00.433Z,-4.58
2019-01-23T19:09:32.340Z,-4.52
2019-01-23T19:12:04.431Z,-4.48
2019-01-23T19:14:36.266Z,-4.65
2019-01-23T19:17:08.204Z,-4.65
2019-01-23T19:19:40.104Z,-4.51
2019-01-23T19:22:12.292Z,-4.57
2019-01-23T19:24:45.032Z,-4.60
2019-01-23T19:27:16.950Z,-4.63
2019-01-23T19:29:48.788Z,-4.60
2019-01-23T19:32:21.128Z,-4.68
2019-01-23T19:34:53.066Z,-4.68
2019-01-23T19:37:25.730Z,-4.66
2019-01-23T19:39:57.581Z,-4.64
2019-01-23T19:42:29.510Z,-4.65
2019-01-23T19:45:01.365Z,-4.65
2019-01-23T19:47:33.290Z,-4.70
2019-01-23T19:50:06.353Z,-4.70
2019-01-23T19:52:38.470Z,-4.77
2019-01-23T19:55:12.765Z,-4.73
2019-01-23T19:57:44.789Z,-4.75
2019-01-23T20:00:22.720Z,-4.74
2019-01-23T20:02:54.704Z,-4.75
2019-01-23T20:05:34.540Z,-4.74
2019-01-23T20:08:06.705Z,-4.74
2019-01-23T20:10:38.630Z,-4.73
2019-01-23T20:13:10.550Z,-4.80
2019-01-23T20:15:42.470Z,-4.76
2019-01-23T20:18:14.469Z,-4.82
2019-01-23T20:20:46.387Z,-4.78
2019-01-23T20:23:18.260Z,-4.81
2019-01-23T20:25:50.184Z,-4.82
2019-01-23T20:28:22.112Z,-4.83
2019-01-23T20:30:54.031Z,-4.84
2019-01-23T20:33:28.182Z,-4.88
2019-01-23T20:35:59.764Z,-4.92
2019-01-23T20:38:31.544Z,-4.84
2019-01-23T20:41:03.395Z,-4.89
2019-01-23T20:43:35.244Z,-4.86
2019-01-23T20:46:07.178Z,-4.89
2019-01-23T20:48:39.042Z,-4.88
2019-01-23T20:51:11.170Z,-4.88
2019-01-23T20:53:43.082Z,-4.88
2019-01-23T20:56:15.244Z,-4.88
2019-01-23T20:58:47.085Z,-4.88
2019-01-23T21:01:18.996Z,-4.73
2019-01-23T21:03:51.004Z,-4.79
2019-01-23T21:06:23.012Z,-4.71
2019-01-23T21:08:54.925Z,-4.76
2019-01-23T21:11:26.832Z,-4.81
2019-01-23T21:13:58.923Z,-4.81
2019-01-23T21:16:30.834Z,-4.87
2019-01-23T21:19:02.680Z,-4.92
2019-01-23T21:21:34.588Z,-4.97
2019-01-23T21:24:06.584Z,-4.93
2019-01-23T21:26:38.498Z,-4.94
2019-01-23T21:29:10.420Z,-4.95
2019-01-23T21:31:42.365Z,-4.98
2019-01-23T21:34:14.489Z,-4.98
2019-01-23T21:36:46.411Z,-4.97
2019-01-23T21:39:18.261Z,-4.90
2019-01-23T21:41:52.947Z,-4.97
2019-01-23T21:44:24.869Z,-5.01
2019-01-23T21:46:57.032Z,-4.96
2019-01-23T21:49:28.961Z,-5.02
2019-01-23T21:52:00.799Z,-5.05
2019-01-23T21:54:32.645Z,-5.03
2019-01-23T21:57:05.599Z,-5.10
2019-01-23T21:59:37.513Z,-5.08
2019-01-23T22:02:09.544Z,-4.99
2019-01-23T22:04:41.522Z,-5.09
2019-01-23T22:07:13.366Z,-5.13
2019-01-23T22:09:45.231Z,-5.08
2019-01-23T22:12:17.086Z,-5.11
2019-01-23T22:14:48.957Z,-5.09
2019-01-23T22:17:20.801Z,-5.05
2019-01-23T22:19:52.665Z,-5.13
2019-01-23T22:22:25.486Z,-5.19
2019-01-23T22:24:57.365Z,-5.28
2019-01-23T22:27:29.281Z,-5.24
2019-01-23T22:30:01.219Z,-5.22
2019-01-23T22:32:33.406Z,-5.25
2019-01-23T22:35:06.620Z,-5.27
2019-01-23T22:37:39.119Z,-5.24
2019-01-23T22:40:12.376Z,-5.25
2019-01-23T22:42:44.287Z,-5.27
2019-01-23T22:45:18.571Z,-5.32
2019-01-23T22:47:50.706Z,-5.20
2019-01-23T22:50:25.532Z,-5.42
2019-01-23T22:52:57.521Z,-5.32
2019-01-23T22:55:29.464Z,-5.28
2019-01-23T22:58:01.371Z,-5.33
2019-01-23T23:01:21.599Z,-5.26
2019-01-23T23:03:53.470Z,-5.29
2019-01-23T23:06:25.428Z,-5.33
2019-01-23T23:08:57.267Z,-5.24
2019-01-23T23:11:29.454Z,-5.24
2019-01-23T23:14:01.383Z,-5.28
2019-01-23T23:16:33.233Z,-5.20
2019-01-23T23:19:05.228Z,-5.31
2019-01-23T23:21:37.076Z,-5.25
2019-01-23T23:24:09.633Z,-5.32
2019-01-23T23:26:41.826Z,-5.44
2019-01-23T23:29:13.739Z,-5.47
2019-01-23T23:31:45.766Z,-5.53
2019-01-23T23:34:17.688Z,-5.59
2019-01-23T23:36:49.618Z,-5.59
2019-01-23T23:39:21.540Z,-5.58
2019-01-23T23:41:53.465Z,-5.46
2019-01-23T23:44:25.355Z,-5.39
2019-01-23T23:46:57.245Z,-5.32
2019-01-23T23:49:29.162Z,-5.51
2019-01-23T23:52:01.093Z,-5.50
2019-01-23T23:54:33.268Z,-5.63
2019-01-23T23:57:05.205Z,-5.74
2019-01-23T23:59:37.121Z,-5.66
